Time;durP1;ratioP1;P1;durP2;ratioP2;P2;SDS_P1;SDS_P2;PMS_P1;PMS_P2;Temp;Humidity;BMP_temperature;BMP_pressure;BME280_temperature;BME280_humidity;BME280_pressure;Samples;Min_cycle;Max_cycle;Signal;HPM_P1;HPM_P2
2021/11/17 02:26:07;;;;;;;127.35;47.58;;;;;;;3.53;100.00;101875.59;5008903;28;20501;-71
2021/11/17 02:29:01;;;;;;;119.18;44.38;;;;;;;3.54;100.00;101873.88;5013215;28;20018;-71
2021/11/17 02:31:48;;;;;;;121.47;44.53;;;;;;;3.62;100.00;101872.53;4926835;29;20123;-71
2021/11/17 02:34:24;;;;;;;124.53;45.55;;;;;;;3.58;100.00;101870.59;4922368;29;20032;-71
2021/11/17 02:37:01;;;;;;;129.80;47.17;;;;;;;3.58;100.00;101865.34;4926380;29;20078;-71
2021/11/17 02:39:32;;;;;;;130.45;48.08;;;;;;;3.62;100.00;101875.16;4926296;29;20550;-71
2021/11/17 02:42:06;;;;;;;123.30;46.40;;;;;;;3.65;100.00;101875.28;4925104;29;20062;-71
2021/11/17 02:45:00;;;;;;;127.05;46.00;;;;;;;3.69;100.00;101864.16;4943533;29;20046;-71
2021/11/17 02:47:51;;;;;;;121.68;44.97;;;;;;;3.70;100.00;101865.06;4943840;29;20028;-71
2021/11/17 02:50:42;;;;;;;123.15;44.63;;;;;;;3.73;100.00;101866.13;4924800;29;20040;-71
2021/11/17 02:53:25;;;;;;;110.57;42.13;;;;;;;3.77;100.00;101867.16;4923948;29;20094;-71
2021/11/17 02:55:54;;;;;;;105.97;41.47;;;;;;;3.79;100.00;101879.47;4925491;29;20047;-71
2021/11/17 02:58:57;;;;;;;109.88;42.40;;;;;;;3.79;100.00;101884.72;4937957;28;20043;-71
2021/11/17 03:01:52;;;;;;;114.72;42.22;;;;;;;3.85;100.00;101884.13;4962136;28;20070;-71
2021/11/17 03:04:46;;;;;;;111.63;41.35;;;;;;;3.87;100.00;101885.06;4960797;28;20143;-71
2021/11/17 03:07:21;;;;;;;111.07;41.97;;;;;;;3.87;100.00;101892.94;4976912;28;20072;-71
2021/11/17 03:10:21;;;;;;;101.18;39.70;;;;;;;3.91;100.00;101886.13;5042801;28;20032;-71
2021/11/17 03:13:02;;;;;;;104.97;40.15;;;;;;;3.91;100.00;101888.75;4999436;28;20045;-71
2021/11/17 03:15:46;;;;;;;106.03;41.92;;;;;;;3.92;100.00;101890.56;5001880;28;20120;-71
2021/11/17 03:18:20;;;;;;;105.85;40.53;;;;;;;3.92;100.00;101878.34;5003944;28;20030;-71
2021/11/17 03:20:55;;;;;;;100.95;39.70;;;;;;;3.96;100.00;101876.78;5001508;28;20382;-71
2021/11/17 03:23:27;;;;;;;106.60;39.30;;;;;;;3.98;100.00;101877.75;5002374;28;20045;-70
2021/11/17 03:26:42;;;;;;;101.20;39.83;;;;;;;3.95;100.00;101899.44;5002050;28;20034;-70
2021/11/17 03:29:31;;;;;;;105.03;40.47;;;;;;;3.97;100.00;101904.75;4949432;28;20241;-71
2021/11/17 03:32:09;;;;;;;101.82;38.63;;;;;;;3.97;100.00;101899.50;4953468;29;20046;-71
2021/11/17 03:34:44;;;;;;;99.32;38.08;;;;;;;4.07;100.00;101893.00;4953470;29;20039;-71
2021/11/17 03:37:36;;;;;;;98.18;39.70;;;;;;;4.05;100.00;101885.09;4953382;29;20036;-71
2021/11/17 03:40:16;;;;;;;101.22;39.80;;;;;;;4.06;100.00;101871.16;4953550;28;20043;-71
2021/11/17 03:42:50;;;;;;;94.03;38.70;;;;;;;4.08;100.00;101861.66;4969326;28;20066;-71
2021/11/17 03:45:30;;;;;;;97.57;37.50;;;;;;;4.09;100.00;101853.00;4972229;28;20496;-70
2021/11/17 03:48:39;;;;;;;93.65;37.85;;;;;;;4.10;100.00;101856.50;5002476;28;20043;-71
2021/11/17 03:51:32;;;;;;;92.85;37.75;;;;;;;4.09;100.00;101891.34;5003590;28;20048;-71
2021/11/17 03:54:06;;;;;;;95.13;36.67;;;;;;;4.08;100.00;101880.00;5003560;28;20387;-71
2021/11/17 03:56:31;;;;;;;86.60;35.08;;;;;;;4.13;100.00;101882.81;5000413;28;20061;-71
2021/11/17 03:59:11;;;;;;;85.30;35.55;;;;;;;4.16;100.00;101873.38;5002086;28;20034;-71
2021/11/17 04:01:39;;;;;;;88.18;36.17;;;;;;;4.16;100.00;101864.63;5003741;28;20030;-71
2021/11/17 04:04:05;;;;;;;86.40;35.33;;;;;;;4.16;100.00;101873.38;5109733;27;20035;-71
2021/11/17 04:06:58;;;;;;;83.50;34.30;;;;;;;4.27;100.00;101859.91;5125067;27;20368;-71
2021/11/17 04:09:47;;;;;;;90.57;36.60;;;;;;;4.22;100.00;101856.19;5103458;27;20119;-71
2021/11/17 04:12:39;;;;;;;88.65;35.70;;;;;;;4.22;100.00;101866.66;5119352;27;20024;-71
2021/11/17 04:15:20;;;;;;;90.95;35.88;;;;;;;4.25;100.00;101882.50;5122331;27;20377;-70
2021/11/17 04:18:01;;;;;;;90.15;36.10;;;;;;;4.29;100.00;101873.97;5120061;27;20031;-71
2021/11/17 04:20:41;;;;;;;84.35;36.05;;;;;;;4.30;100.00;101883.63;5123309;27;20035;-71
2021/11/17 04:23:06;;;;;;;82.47;35.65;;;;;;;4.29;100.00;101885.31;5114793;27;20027;-71
2021/11/17 04:25:59;;;;;;;87.15;36.10;;;;;;;4.30;100.00;101891.47;5123099;27;20039;-71
2021/11/17 04:28:44;;;;;;;89.07;35.53;;;;;;;4.34;100.00;101896.03;5100774;28;20041;-71
2021/11/17 04:31:41;;;;;;;89.47;36.00;;;;;;;4.33;100.00;101881.13;5123783;27;20467;-71
2021/11/17 04:34:40;;;;;;;88.10;36.35;;;;;;;4.30;100.00;101896.72;5123200;27;20031;-71
2021/11/17 04:37:24;;;;;;;92.55;37.03;;;;;;;4.29;100.00;101897.53;5122914;27;20474;-71
2021/11/17 04:39:55;;;;;;;90.18;36.50;;;;;;;4.30;100.00;101896.72;5118247;28;20501;-71
2021/11/17 04:42:23;;;;;;;88.85;36.13;;;;;;;4.28;100.00;101903.56;5124993;27;20023;-71
2021/11/17 04:45:15;;;;;;;97.53;36.33;;;;;;;4.31;100.00;101888.94;5121382;27;20039;-71
2021/11/17 04:48:12;;;;;;;99.97;36.78;;;;;;;4.21;100.00;101875.31;5041462;28;20048;-71
2021/11/17 04:50:50;;;;;;;100.40;37.13;;;;;;;4.17;100.00;101872.56;4962116;28;20076;-71
2021/11/17 04:53:37;;;;;;;99.85;35.95;;;;;;;4.27;100.00;101867.78;4960354;28;20070;-71
2021/11/17 04:56:20;;;;;;;107.68;38.40;;;;;;;4.18;100.00;101865.63;4961624;28;20070;-71
2021/11/17 04:58:55;;;;;;;109.88;38.10;;;;;;;4.15;100.00;101862.84;4960203;28;20047;-71
2021/11/17 05:01:57;;;;;;;104.40;37.78;;;;;;;4.12;100.00;101850.53;4960352;28;20532;-71
2021/11/17 05:04:58;;;;;;;111.47;39.00;;;;;;;4.13;100.00;101860.16;4960630;28;20043;-71
2021/11/17 05:07:57;;;;;;;112.60;38.65;;;;;;;4.13;100.00;101826.13;4960699;28;20394;-71
2021/11/17 05:10:50;;;;;;;106.15;37.42;;;;;;;4.18;100.00;101824.63;4876408;29;20037;-71
2021/11/17 05:13:44;;;;;;;111.75;38.97;;;;;;;4.14;100.00;101803.47;4876657;29;20093;-71
2021/11/17 05:16:28;;;;;;;112.78;38.15;;;;;;;4.09;100.00;101808.50;4847644;29;20057;-71
2021/11/17 05:19:10;;;;;;;109.68;39.67;;;;;;;4.08;100.00;101838.13;4846954;29;20041;-71
2021/11/17 05:22:06;;;;;;;116.38;39.80;;;;;;;4.05;100.00;101840.59;4849173;29;20174;-71
2021/11/17 05:24:40;;;;;;;116.63;40.03;;;;;;;4.03;100.00;101846.56;4875455;29;20479;-71
2021/11/17 05:27:30;;;;;;;117.30;40.53;;;;;;;4.07;100.00;101841.53;4929705;29;20048;-71
2021/11/17 05:30:07;;;;;;;113.43;40.17;;;;;;;4.12;100.00;101833.91;4938179;29;20031;-71
2021/11/17 05:32:33;;;;;;;109.88;39.05;;;;;;;4.08;100.00;101838.13;4942362;29;20039;-71
2021/11/17 05:35:05;;;;;;;116.35;40.38;;;;;;;4.06;100.00;101831.91;4942914;29;20042;-71
2021/11/17 05:37:44;;;;;;;;;;;;;;;4.05;100.00;101830.13;4942664;29;20387;-71
2021/11/17 05:40:28;;;;;;;114.80;39.97;;;;;;;4.06;100.00;101824.03;4941458;29;19973;-71
2021/11/17 05:43:06;;;;;;;113.75;39.75;;;;;;;4.03;100.00;101823.91;4938066;29;20544;-71
2021/11/17 05:45:44;;;;;;;115.15;40.20;;;;;;;4.07;100.00;101833.69;4941873;29;20035;-70
2021/11/17 05:48:18;;;;;;;115.07;39.53;;;;;;;4.05;100.00;101835.38;5029505;28;20039;-70
2021/11/17 05:50:53;;;;;;;117.20;41.17;;;;;;;4.12;100.00;101832.22;5041331;28;20045;-70
2021/11/17 05:53:42;;;;;;;114.53;38.83;;;;;;;4.15;100.00;101828.81;5089646;27;20042;-70
2021/11/17 05:56:19;;;;;;;113.25;40.20;;;;;;;4.22;100.00;101830.00;5125778;27;20571;-70
2021/11/17 05:59:09;;;;;;;110.13;38.67;;;;;;;4.22;100.00;101832.63;5124770;27;20035;-71
2021/11/17 06:01:45;;;;;;;108.43;39.30;;;;;;;4.18;100.00;101840.34;5125242;27;20378;-72
2021/11/17 06:04:11;;;;;;;113.15;39.75;;;;;;;4.15;100.00;101839.28;5125291;27;20057;-71
2021/11/17 06:06:37;;;;;;;113.03;41.40;;;;;;;4.11;100.00;101837.38;5108226;27;20023;-71
2021/11/17 06:09:03;;;;;;;108.57;40.20;;;;;;;4.16;100.00;101836.72;5126185;27;20473;-70
2021/11/17 06:11:33;;;;;;;111.30;39.58;;;;;;;4.18;100.00;101840.34;5125866;27;20393;-70
2021/11/17 06:14:00;;;;;;;114.15;40.47;;;;;;;4.23;100.00;101843.16;5126992;27;20373;-71
2021/11/17 06:16:28;;;;;;;111.22;39.45;;;;;;;4.24;100.00;101847.56;5124996;27;20019;-70
2021/11/17 06:18:54;;;;;;;103.95;37.22;;;;;;;4.28;100.00;101848.59;5127623;27;20166;-70
2021/11/17 06:21:20;;;;;;;113.53;41.08;;;;;;;4.27;100.00;101845.09;5124422;27;20023;-70
2021/11/17 06:23:58;;;;;;;108.40;40.13;;;;;;;4.26;100.00;101847.66;5119967;27;20462;-69
2021/11/17 06:26:29;;;;;;;110.00;40.00;;;;;;;4.26;100.00;101850.25;5113902;27;20051;-68
2021/11/17 06:29:01;;;;;;;112.05;40.50;;;;;;;4.30;100.00;101854.81;5119703;27;20500;-71
2021/11/17 06:31:28;;;;;;;109.03;40.80;;;;;;;4.35;100.00;101858.53;5117270;27;20024;-68
2021/11/17 06:33:53;;;;;;;106.95;39.65;;;;;;;4.33;100.00;101860.19;5116610;27;20522;-69
2021/11/17 06:36:19;;;;;;;107.50;39.78;;;;;;;4.41;100.00;101864.03;5120007;27;20032;-68
2021/11/17 06:38:45;;;;;;;104.28;39.38;;;;;;;4.41;100.00;101864.03;5117525;27;20423;-69
2021/11/17 06:41:13;;;;;;;103.85;39.13;;;;;;;4.48;100.00;101870.47;5116496;27;20024;-70
2021/11/17 06:43:38;;;;;;;104.35;39.97;;;;;;;4.49;100.00;101867.03;5113365;27;20114;-68
2021/11/17 06:46:04;;;;;;;102.57;38.65;;;;;;;4.53;100.00;101872.47;5115790;27;20111;-66
2021/11/17 06:48:30;;;;;;;101.65;38.03;;;;;;;4.56;100.00;101878.66;5119641;27;20031;-70
2021/11/17 06:50:57;;;;;;;107.13;40.75;;;;;;;4.56;100.00;101876.03;5117726;27;20067;-70
2021/11/17 06:53:24;;;;;;;105.95;40.08;;;;;;;4.62;100.00;101884.19;5119970;27;20046;-71
2021/11/17 06:55:50;;;;;;;107.10;41.47;;;;;;;4.59;100.00;101884.94;5117271;27;20028;-69
2021/11/17 06:58:16;;;;;;;108.88;40.53;;;;;;;4.64;100.00;101893.91;5116075;27;20035;-68
2021/11/17 07:00:44;;;;;;;109.20;41.75;;;;;;;4.67;100.00;101891.41;5115881;27;20024;-68
2021/11/17 07:03:11;;;;;;;102.80;38.75;;;;;;;4.68;100.00;101890.59;5112839;28;20024;-69
2021/11/17 07:05:37;;;;;;;99.38;38.17;;;;;;;4.71;100.00;101892.47;5116625;27;20035;-69
2021/11/17 07:08:04;;;;;;;99.10;37.33;;;;;;;4.76;100.00;101893.59;5120844;27;20023;-69
2021/11/17 07:10:31;;;;;;;99.47;37.38;;;;;;;4.75;100.00;101883.91;5095957;28;20454;-70
2021/11/17 07:12:57;;;;;;;94.93;36.85;;;;;;;4.81;100.00;101880.69;5117460;27;20016;-69
2021/11/17 07:15:25;;;;;;;99.35;37.75;;;;;;;4.82;100.00;101885.97;5117150;27;20027;-68
2021/11/17 07:17:51;;;;;;;90.60;37.50;;;;;;;4.87;100.00;101897.53;5113784;27;20024;-70
2021/11/17 07:20:16;;;;;;;98.65;38.67;;;;;;;4.91;100.00;101895.97;5116769;27;20026;-69
2021/11/17 07:22:43;;;;;;;100.78;38.22;;;;;;;4.88;100.00;101888.88;5115170;27;20020;-70
2021/11/17 07:25:12;;;;;;;97.88;38.17;;;;;;;4.91;100.00;101897.69;5115323;27;20031;-69
2021/11/17 07:27:38;;;;;;;91.70;35.67;;;;;;;4.95;100.00;101910.09;5119458;27;20034;-69
2021/11/17 07:30:07;;;;;;;95.93;37.40;;;;;;;4.97;100.00;101909.34;5116638;27;20019;-70
2021/11/17 07:32:32;;;;;;;91.85;35.63;;;;;;;5.00;100.00;101913.84;5118096;27;20030;-70
2021/11/17 07:34:58;;;;;;;89.63;36.47;;;;;;;5.05;100.00;101907.06;5116322;27;20027;-71
2021/11/17 07:37:24;;;;;;;92.20;36.65;;;;;;;5.05;100.00;101910.59;5114519;27;20031;-71
2021/11/17 07:39:50;;;;;;;94.57;37.38;;;;;;;5.09;100.00;101914.22;5115553;27;20492;-71
2021/11/17 07:42:16;;;;;;;94.50;37.25;;;;;;;5.11;100.00;101917.84;5118306;27;20030;-71
2021/11/17 07:44:43;;;;;;;95.03;36.80;;;;;;;5.12;100.00;101918.72;5113831;27;20020;-71
2021/11/17 07:47:09;;;;;;;87.60;34.88;;;;;;;5.17;100.00;101912.84;5116835;27;20058;-70
2021/11/17 07:49:35;;;;;;;88.95;36.28;;;;;;;5.17;100.00;101911.94;5115207;27;20112;-70
2021/11/17 07:52:01;;;;;;;94.65;37.00;;;;;;;5.18;100.00;101916.34;5115722;27;20449;-70
2021/11/17 07:54:28;;;;;;;92.32;36.53;;;;;;;5.21;100.00;101919.09;5115007;27;20057;-71
2021/11/17 07:56:54;;;;;;;94.45;37.75;;;;;;;5.26;100.00;101911.44;5116939;27;20050;-70
2021/11/17 07:59:26;;;;;;;95.10;36.08;;;;;;;5.29;100.00;101899.38;5124872;27;20107;-70
2021/11/17 08:01:58;;;;;;;95.13;37.00;;;;;;;5.32;100.00;101899.50;5119647;27;20511;-71
2021/11/17 08:04:24;;;;;;;97.15;37.10;;;;;;;5.40;100.00;101899.81;5115489;27;20767;-70
2021/11/17 08:06:51;;;;;;;89.38;37.10;;;;;;;5.43;100.00;101905.19;5116448;27;20023;-70
2021/11/17 08:09:17;;;;;;;95.32;36.03;;;;;;;5.48;100.00;101903.66;5113932;27;20055;-69
2021/11/17 08:11:44;;;;;;;98.35;38.50;;;;;;;5.51;100.00;101898.53;5118103;27;20165;-70
2021/11/17 08:14:10;;;;;;;99.30;39.38;;;;;;;5.55;100.00;101899.59;5114936;27;20042;-71
2021/11/17 08:16:37;;;;;;;109.80;40.00;;;;;;;5.53;100.00;101904.75;5112620;27;20028;-70
2021/11/17 08:19:03;;;;;;;114.35;42.00;;;;;;;5.56;100.00;101907.50;5115204;27;20015;-69
2021/11/17 08:21:28;;;;;;;115.10;40.83;;;;;;;5.55;100.00;101921.44;5118121;27;20530;-71
2021/11/17 08:23:53;;;;;;;114.57;42.20;;;;;;;5.56;100.00;101923.25;5117057;27;20030;-72
2021/11/17 08:26:21;;;;;;;112.60;40.15;;;;;;;5.57;100.00;101938.13;5118322;27;20066;-70
2021/11/17 08:28:47;;;;;;;119.13;42.60;;;;;;;5.58;100.00;101952.16;5109943;27;20034;-71
2021/11/17 08:31:13;;;;;;;121.78;42.50;;;;;;;5.58;100.00;101950.44;5113672;27;20465;-70
2021/11/17 08:33:43;;;;;;;118.25;41.72;;;;;;;5.61;100.00;101951.38;5117079;27;20027;-70
2021/11/17 08:36:09;;;;;;;124.68;43.30;;;;;;;5.59;100.00;101944.38;5094727;28;20024;-67
2021/11/17 08:38:35;;;;;;;122.53;42.10;;;;;;;5.59;100.00;101943.44;5121125;27;20027;-70
2021/11/17 08:41:08;;;;;;;134.60;45.33;;;;;;;5.62;100.00;101948.84;5113594;28;20076;-70
2021/11/17 08:43:36;;;;;;;129.68;42.80;;;;;;;5.67;100.00;101943.78;5094267;28;20064;-70
2021/11/17 08:46:02;;;;;;;132.48;43.97;;;;;;;5.70;100.00;101943.91;5118639;28;20035;-70
2021/11/17 08:48:31;;;;;;;139.68;45.08;;;;;;;5.67;100.00;101942.06;5115359;28;20130;-70
2021/11/17 08:50:59;;;;;;;143.80;45.65;;;;;;;5.74;100.00;101922.22;5115503;28;20023;-70
2021/11/17 08:53:27;;;;;;;133.40;44.72;;;;;;;5.85;100.00;101939.28;5118252;28;20035;-70
2021/11/17 08:55:53;;;;;;;134.63;43.35;;;;;;;5.86;100.00;101945.44;5116278;28;20114;-71
2021/11/17 08:58:21;;;;;;;142.45;45.53;;;;;;;5.85;100.00;101947.16;5116962;28;20066;-70
2021/11/17 09:00:47;;;;;;;135.93;44.70;;;;;;;5.90;100.00;101950.88;5114720;28;20016;-70
2021/11/17 09:03:12;;;;;;;143.48;46.22;;;;;;;5.94;100.00;101958.06;5093878;28;20042;-71
2021/11/17 09:05:59;;;;;;;144.35;46.85;;;;;;;5.96;100.00;101959.84;5119150;28;20023;-70
2021/11/17 09:08:25;;;;;;;145.18;44.75;;;;;;;5.96;100.00;101954.59;5117494;28;20054;-70
2021/11/17 09:10:54;;;;;;;149.13;45.72;;;;;;;5.96;100.00;101959.84;5116661;28;20458;-70
2021/11/17 09:13:20;;;;;;;150.35;45.22;;;;;;;6.00;100.00;101956.53;5124299;28;20027;-70
2021/11/17 09:15:48;;;;;;;143.10;45.83;;;;;;;6.02;100.00;101958.38;5121732;28;20485;-70
2021/11/17 09:18:15;;;;;;;157.43;47.85;;;;;;;6.16;100.00;101964.22;5123496;28;20114;-70
2021/11/17 09:20:41;;;;;;;152.43;47.92;;;;;;;6.28;100.00;101964.69;5122262;28;20031;-71
2021/11/17 09:23:08;;;;;;;145.18;46.65;;;;;;;6.42;100.00;101966.97;5122716;28;20023;-72
2021/11/17 09:25:34;;;;;;;141.02;45.05;;;;;;;6.51;100.00;101966.41;5123374;28;20106;-71
2021/11/17 09:27:59;;;;;;;145.75;47.25;;;;;;;6.56;100.00;101981.53;5123985;27;20180;-71
2021/11/17 09:30:27;;;;;;;143.35;46.92;;;;;;;6.56;100.00;101980.66;5119773;27;20496;-71
2021/11/17 09:32:57;;;;;;;153.95;47.83;;;;;;;6.55;100.00;101984.09;5123029;27;20028;-72
2021/11/17 09:35:23;;;;;;;149.13;46.88;;;;;;;6.55;100.00;101982.38;5118508;27;20031;-71
2021/11/17 09:37:51;;;;;;;154.90;47.08;;;;;;;6.54;100.00;101971.78;5116979;27;20026;-71
2021/11/17 09:40:26;;;;;;;166.30;51.45;;;;;;;6.54;100.00;101972.72;5123751;27;20036;-73
2021/11/17 09:42:52;;;;;;;159.55;49.38;;;;;;;6.54;100.00;101975.34;5117939;27;20034;-71
2021/11/17 09:45:19;;;;;;;160.63;49.50;;;;;;;6.56;100.00;101984.16;5120939;27;20031;-71
2021/11/17 09:47:48;;;;;;;171.52;51.72;;;;;;;6.59;100.00;101986.91;5117475;27;20054;-71
2021/11/17 09:50:20;;;;;;;164.05;51.35;;;;;;;6.66;100.00;101981.91;5121162;27;20478;-71
2021/11/17 09:52:55;;;;;;;159.20;49.33;;;;;;;6.70;100.00;101994.31;5120312;27;20030;-71
2021/11/17 09:55:33;;;;;;;152.98;48.20;;;;;;;6.74;100.00;101993.59;5124097;27;20039;-71
2021/11/17 09:58:09;;;;;;;170.55;50.95;;;;;;;6.73;100.00;101991.81;5117409;27;20481;-71
2021/11/17 10:00:46;;;;;;;163.07;50.42;;;;;;;6.73;100.00;102000.59;5122955;27;20485;-71
2021/11/17 10:03:26;;;;;;;162.25;49.97;;;;;;;6.75;100.00;101996.28;5118586;27;20050;-71
2021/11/17 10:14:54;;;;;;;130.80;43.87;;;;;;;6.90;100.00;102000.31;5022359;28;20046;-71
2021/11/17 10:17:33;;;;;;;126.68;43.78;;;;;;;6.91;100.00;102000.38;5024278;28;20042;-71
2021/11/17 10:20:14;;;;;;;123.75;43.95;;;;;;;6.94;100.00;102000.50;5022184;28;20033;-71
2021/11/17 10:22:42;;;;;;;134.27;45.22;;;;;;;6.95;100.00;101999.66;5020779;28;20419;-71
2021/11/17 10:25:16;;;;;;;136.23;46.88;;;;;;;6.97;100.00;102002.34;5024680;28;20116;-71
2021/11/17 10:27:51;;;;;;;141.60;46.20;;;;;;;7.07;100.00;102003.59;5026290;28;20044;-71
2021/11/17 10:30:33;;;;;;;154.73;49.35;;;;;;;7.13;100.00;102001.19;5022599;28;20022;-71
2021/11/17 10:32:58;;;;;;;161.02;51.92;;;;;;;7.17;100.00;101999.59;5017204;28;20092;-71
2021/11/17 10:35:34;;;;;;;161.20;50.72;;;;;;;7.25;100.00;102000.75;5023451;28;20025;-71
2021/11/17 10:38:00;;;;;;;171.82;52.35;;;;;;;7.31;100.00;101996.59;5022729;28;20034;-71
2021/11/17 10:40:28;;;;;;;167.00;52.78;;;;;;;7.39;100.00;101998.63;5023129;28;20384;-70
2021/11/17 10:43:06;;;;;;;160.88;52.78;;;;;;;7.46;100.00;102001.50;5022528;28;20037;-71
2021/11/17 10:45:38;;;;;;;170.90;54.55;;;;;;;7.49;100.00;102000.72;5031464;28;20091;-71
2021/11/17 10:48:15;;;;;;;;;;;;;;;7.66;100.00;102004.84;5033601;28;20084;-71
2021/11/17 10:50:40;;;;;;;168.23;55.55;;;;;;;7.93;100.00;102003.09;5073118;27;19911;-70
2021/11/17 10:53:26;;;;;;;158.05;52.95;;;;;;;7.97;100.00;102005.00;5118214;27;20027;-71
2021/11/17 10:55:54;;;;;;;164.57;56.67;;;;;;;7.78;100.00;102004.38;5121134;27;20075;-70
2021/11/17 10:58:29;;;;;;;168.73;56.50;;;;;;;7.70;100.00;102000.56;5123625;27;20027;-70
2021/11/17 11:01:13;;;;;;;163.80;55.50;;;;;;;7.66;100.00;102003.97;5119178;27;20028;-70
2021/11/17 11:03:41;;;;;;;175.98;57.20;;;;;;;7.67;100.00;102014.56;5124378;27;20023;-71
2021/11/17 11:06:17;;;;;;;180.18;58.05;;;;;;;7.65;100.00;102012.69;5122971;27;20035;-70
2021/11/17 11:09:07;;;;;;;175.30;56.58;;;;;;;7.67;100.00;102017.19;5121262;27;20060;-70
2021/11/17 11:11:39;;;;;;;176.57;56.72;;;;;;;7.71;100.00;102020.81;5121019;27;20495;-70
2021/11/17 11:14:12;;;;;;;186.57;60.13;;;;;;;7.76;100.00;102016.59;5119614;27;20032;-70
2021/11/17 11:16:47;;;;;;;179.77;59.92;;;;;;;7.82;100.00;102027.34;5120629;27;20081;-70
2021/11/17 11:19:12;;;;;;;174.85;56.08;;;;;;;7.90;100.00;102024.97;5113769;27;20466;-69
2021/11/17 11:21:40;;;;;;;170.57;56.95;;;;;;;7.93;100.00;102026.81;5116513;27;20104;-72
2021/11/17 11:24:26;;;;;;;182.45;57.55;;;;;;;7.97;100.00;102028.72;5097659;28;20088;-70
2021/11/17 11:26:58;;;;;;;179.52;60.08;;;;;;;8.09;100.00;102015.06;5118051;27;20179;-70
2021/11/17 11:29:30;;;;;;;166.90;57.97;;;;;;;8.19;100.00;102020.66;5115689;27;20032;-70
2021/11/17 11:31:57;;;;;;;160.45;57.72;;;;;;;8.20;100.00;102018.94;5115596;27;20039;-70
2021/11/17 11:34:41;;;;;;;163.50;56.60;;;;;;;8.28;100.00;102027.09;5113753;27;20489;-73
2021/11/17 11:37:31;;;;;;;154.52;57.05;;;;;;;8.35;100.00;102019.41;5116265;27;20019;-69
2021/11/17 11:40:19;;;;;;;152.10;56.08;;;;;;;8.43;100.00;102021.41;5043513;28;20048;-72
2021/11/17 11:43:00;;;;;;;158.18;56.58;;;;;;;8.63;100.00;102020.31;5003834;28;20042;-70
2021/11/17 11:45:25;;;;;;;142.60;53.75;;;;;;;8.69;100.00;102016.97;4992228;28;20042;-68
2021/11/17 11:48:01;;;;;;;139.75;52.05;;;;;;;8.67;100.00;102023.97;5006285;28;20057;-69
2021/11/17 11:50:35;;;;;;;145.23;52.63;;;;;;;8.76;100.00;102020.72;5003064;28;20045;-69
2021/11/17 11:53:12;;;;;;;140.15;54.33;;;;;;;8.93;100.00;102027.41;4996613;28;20061;-70
2021/11/17 11:55:56;;;;;;;138.38;53.13;;;;;;;9.19;100.00;102022.00;5004969;28;20026;-70
2021/11/17 11:58:25;;;;;;;135.57;54.60;;;;;;;9.20;100.00;102019.41;5003600;28;20038;-70
2021/11/17 12:00:56;;;;;;;124.53;49.30;;;;;;;9.10;100.00;102016.44;5004066;28;20367;-70
2021/11/17 12:03:25;;;;;;;129.93;52.75;;;;;;;9.00;100.00;102016.19;4976252;28;20088;-70
2021/11/17 12:06:10;;;;;;;120.82;48.75;;;;;;;9.24;100.00;102023.88;5006019;28;20046;-70
2021/11/17 12:09:07;;;;;;;121.55;50.88;;;;;;;9.29;100.00;102029.31;5006267;28;20046;-71
2021/11/17 12:11:33;;;;;;;120.13;49.95;;;;;;;9.21;100.00;102026.44;5002905;28;20070;-70
2021/11/17 12:14:04;;;;;;;132.13;53.00;;;;;;;9.27;100.00;102022.22;5006115;28;20080;-71
2021/11/17 12:16:41;;;;;;;119.03;50.20;;;;;;;9.50;100.00;102033.41;5020278;28;20048;-71
2021/11/17 12:19:21;;;;;;;118.50;49.25;;;;;;;9.82;100.00;102029.00;5060079;27;20035;-70
2021/11/17 12:22:01;;;;;;;113.25;48.20;;;;;;;10.12;100.00;102036.81;5122732;27;20023;-71
2021/11/17 12:24:47;;;;;;;105.90;47.38;;;;;;;10.40;100.00;102029.59;5117812;27;20038;-70
2021/11/17 12:27:15;;;;;;;102.90;46.08;;;;;;;10.59;100.00;102027.41;5121782;27;20036;-71
2021/11/17 12:29:58;;;;;;;97.30;45.70;;;;;;;10.87;100.00;102028.91;5123187;27;20030;-71
2021/11/17 12:32:47;;;;;;;93.88;43.55;;;;;;;11.41;100.00;102026.47;5117726;27;20069;-71
2021/11/17 12:35:35;;;;;;;87.03;41.92;;;;;;;11.73;100.00;102035.03;5121927;27;20509;-70
2021/11/17 12:38:09;;;;;;;81.78;39.83;;;;;;;11.81;97.67;102041.38;5118671;27;20065;-71
2021/11/17 12:40:51;;;;;;;82.88;40.15;;;;;;;11.77;97.18;102025.41;5124286;28;20035;-71
2021/11/17 12:44:00;;;;;;;79.23;38.77;;;;;;;11.82;96.73;102027.28;5105594;28;20078;-71
2021/11/17 12:46:31;;;;;;;73.95;38.72;;;;;;;12.11;93.84;102021.59;5015672;28;20046;-68
2021/11/17 12:49:15;;;;;;;79.00;39.05;;;;;;;12.12;93.51;102039.28;5004113;28;20030;-68
2021/11/17 12:51:58;;;;;;;82.72;40.72;;;;;;;11.54;95.48;102035.56;5013153;28;20419;-68
2021/11/17 12:54:26;;;;;;;79.32;40.80;;;;;;;11.77;96.13;102031.56;5012937;28;20026;-70
2021/11/17 12:57:00;;;;;;;74.50;38.65;;;;;;;11.92;93.04;102035.38;5014248;28;20424;-70
2021/11/17 12:59:36;;;;;;;73.43;38.30;;;;;;;11.70;93.61;102029.69;5013553;28;20436;-68
2021/11/17 13:02:27;;;;;;;72.63;37.90;;;;;;;11.76;93.61;102028.91;5014051;28;20423;-68
2021/11/17 13:05:29;;;;;;;69.80;38.38;;;;;;;12.06;93.93;102033.91;5018334;28;20473;-70
2021/11/17 13:08:04;;;;;;;73.10;37.65;;;;;;;12.31;91.05;102039.59;5016396;28;20026;-70
2021/11/17 13:10:47;;;;;;;66.93;35.67;;;;;;;12.83;89.72;102045.69;5017735;28;20042;-67
2021/11/17 13:13:21;;;;;;;67.28;36.22;;;;;;;13.40;83.13;102035.81;5017659;28;20034;-67
2021/11/17 13:16:11;;;;;;;65.57;35.85;;;;;;;14.04;82.59;102033.81;5015345;28;20119;-69
2021/11/17 13:18:50;;;;;;;65.03;36.15;;;;;;;14.60;78.97;102038.66;5023442;28;20124;-69
2021/11/17 13:21:21;;;;;;;65.85;36.65;;;;;;;14.67;75.76;102036.09;5015507;28;20034;-68
2021/11/17 13:23:59;;;;;;;66.50;36.15;;;;;;;14.93;77.56;102029.16;5119540;27;20126;-68
2021/11/17 13:26:28;;;;;;;59.72;34.60;;;;;;;14.75;73.09;102037.94;5121344;27;20540;-67
2021/11/17 13:28:54;;;;;;;64.22;36.90;;;;;;;13.87;76.90;102029.22;5119413;27;20099;-69
2021/11/17 13:31:37;;;;;;;61.80;36.13;;;;;;;13.73;80.69;102038.81;5119315;27;20110;-69
2021/11/17 13:34:15;;;;;;;64.00;34.95;;;;;;;13.54;80.48;102033.34;5117881;27;20027;-69
2021/11/17 13:36:52;;;;;;;64.07;34.88;;;;;;;12.97;83.00;102037.03;5117940;27;20031;-69
2021/11/17 13:39:23;;;;;;;68.88;36.63;;;;;;;12.33;86.14;102045.81;5119077;27;20492;-69
2021/11/17 13:41:54;;;;;;;66.47;37.13;;;;;;;11.94;88.62;102044.25;5118309;27;20038;-69
2021/11/17 13:44:25;;;;;;;68.40;35.90;;;;;;;11.75;92.29;102049.22;5121142;27;20106;-70
2021/11/17 13:47:12;;;;;;;64.82;35.28;;;;;;;11.78;94.37;102054.56;5121991;27;20473;-70
2021/11/17 13:49:43;;;;;;;68.65;36.63;;;;;;;11.45;95.35;102049.50;5100965;27;20027;-70
2021/11/17 13:52:12;;;;;;;62.77;35.00;;;;;;;11.33;96.56;102058.09;5117256;27;20032;-69
2021/11/17 13:54:38;;;;;;;68.80;37.10;;;;;;;11.12;99.50;102058.53;5119958;27;20027;-70
2021/11/17 13:57:09;;;;;;;70.55;36.90;;;;;;;11.00;99.83;102069.75;5127932;27;20042;-71
2021/11/17 13:59:35;;;;;;;72.97;36.22;;;;;;;10.95;100.00;102069.66;5120276;27;20023;-71
2021/11/17 14:02:01;;;;;;;70.05;36.55;;;;;;;10.90;100.00;102073.94;5127429;27;20034;-71
2021/11/17 14:04:28;;;;;;;70.28;36.42;;;;;;;10.94;100.00;102082.84;5125208;27;20031;-71
2021/11/17 14:06:56;;;;;;;61.25;31.55;;;;;;;10.95;99.72;102080.22;5126375;27;20122;-71
2021/11/17 14:09:22;;;;;;;53.63;28.35;;;;;;;11.16;96.70;102071.84;5125697;27;20030;-71
2021/11/17 14:11:48;;;;;;;48.88;23.45;;;;;;;12.21;87.19;102065.94;5125910;27;20111;-72
2021/11/17 14:14:14;;;;;;;39.35;17.58;;;;;;;13.65;77.59;102064.44;5107396;27;20110;-71